Time;durP1;ratioP1;P1;durP2;ratioP2;P2;SDS_P1;SDS_P2;PMS_P1;PMS_P2;Temp;Humidity;BMP_temperature;BMP_pressure;BME280_temperature;BME280_humidity;BME280_pressure;Samples;Min_cycle;Max_cycle;Signal;HPM_P1;HPM_P2
2023/07/21 00:01:17;;;;;;;2.35;1.42;;;21.50;80.40;;;;;;5041359;28;20129;-31
2023/07/21 00:03:44;;;;;;;2.17;1.50;;;;;;;;;;5038351;28;20057;-35
2023/07/21 00:06:12;;;;;;;2.88;1.60;;;21.40;81.20;;;;;;5029927;28;20052;-33
2023/07/21 00:08:40;;;;;;;2.70;1.60;;;25.00;65.50;;;;;;5040628;28;20064;-31
2023/07/21 00:11:07;;;;;;;2.17;1.40;;;20.80;80.00;;;;;;5038386;28;20549;-32
2023/07/21 00:13:35;;;;;;;2.33;1.50;;;;;;;;;;5039064;28;20053;-34
2023/07/21 00:16:04;;;;;;;1.95;1.20;;;21.00;67.90;;;;;;5041595;28;20507;-34
2023/07/21 00:18:31;;;;;;;2.38;1.58;;;20.50;71.40;;;;;;5038338;28;20562;-33
2023/07/21 00:20:57;;;;;;;2.60;1.73;;;21.00;80.90;;;;;;5036638;28;20121;-32
2023/07/21 00:23:26;;;;;;;2.42;1.50;;;;;;;;;;5041399;28;20523;-34
2023/07/21 00:25:56;;;;;;;2.03;1.30;;;20.90;63.40;;;;;;5036968;28;20046;-31
2023/07/21 00:28:25;;;;;;;1.88;1.30;;;;;;;;;;5032905;28;20124;-35
2023/07/21 00:30:52;;;;;;;2.97;1.40;;;21.10;80.00;;;;;;5041484;28;20053;-38
2023/07/21 00:33:18;;;;;;;1.92;1.40;;;21.20;80.90;;;;;;5036661;28;20508;-38
2023/07/21 00:35:45;;;;;;;2.67;1.30;;;21.20;76.60;;;;;;5034230;28;20124;-38
2023/07/21 00:38:12;;;;;;;3.25;1.40;;;20.40;69.90;;;;;;5037981;28;20049;-40
2023/07/21 00:40:39;;;;;;;1.90;1.33;;;;;;;;;;5032118;28;20124;-39
2023/07/21 00:43:08;;;;;;;2.55;1.30;;;20.00;79.40;;;;;;5041479;28;20140;-39
2023/07/21 00:45:36;;;;;;;2.63;1.58;;;20.90;63.30;;;;;;5029346;28;20045;-36
2023/07/21 00:48:05;;;;;;;2.88;1.42;;;19.80;63.00;;;;;;5032207;28;20414;-37
2023/07/21 00:50:31;;;;;;;3.30;1.55;;;21.20;78.00;;;;;;5041423;28;20053;-38
2023/07/21 00:52:58;;;;;;;3.22;1.52;;;21.70;80.30;;;;;;5038448;28;20544;-39
2023/07/21 00:55:25;;;;;;;1.98;1.20;;;21.60;80.70;;;;;;5037444;28;20045;-38
2023/07/21 00:57:52;;;;;;;1.95;1.35;;;;;;;;;;5039751;28;20079;-38
2023/07/21 01:00:20;;;;;;;1.60;1.30;;;20.40;80.60;;;;;;5035792;28;20041;-39
2023/07/21 01:02:49;;;;;;;1.90;1.17;;;21.00;79.90;;;;;;5040680;28;20159;-38
2023/07/21 01:05:17;;;;;;;1.50;1.30;;;;;;;;;;5040258;28;20109;-36
2023/07/21 01:07:44;;;;;;;2.05;1.50;;;;;;;;;;5040574;28;20038;-36
2023/07/21 01:10:11;;;;;;;2.13;1.30;;;20.50;79.70;;;;;;5043800;28;20123;-38
2023/07/21 01:12:38;;;;;;;2.22;1.40;;;21.30;65.40;;;;;;5024700;28;20052;-37
2023/07/21 01:15:06;;;;;;;2.58;1.35;;;20.80;80.20;;;;;;5036445;28;20053;-36
2023/07/21 01:17:34;;;;;;;2.55;1.42;;;21.80;73.30;;;;;;5040885;28;20051;-36
2023/07/21 01:20:01;;;;;;;1.50;1.30;;;20.20;70.70;;;;;;5037881;28;20124;-37
2023/07/21 01:22:31;;;;;;;2.15;1.30;;;20.40;66.20;;;;;;5042489;28;20056;-38
2023/07/21 01:25:08;;;;;;;2.08;1.30;;;20.70;79.90;;;;;;5043817;28;20056;-36
2023/07/21 01:27:36;;;;;;;1.80;1.20;;;;;;;;;;5040952;28;20417;-37
2023/07/21 01:30:06;;;;;;;1.65;1.25;;;20.50;76.20;;;;;;5035262;28;20117;-39
2023/07/21 01:32:36;;;;;;;1.98;1.48;;;;;;;;;;5040382;28;20097;-36
2023/07/21 01:35:03;;;;;;;1.50;1.25;;;;;;;;;;5038096;28;20098;-37
2023/07/21 01:37:31;;;;;;;1.65;1.38;;;;;;;;;;5036523;28;20185;-39
2023/07/21 01:39:58;;;;;;;1.80;1.20;;;20.30;80.00;;;;;;5039248;28;20060;-39
2023/07/21 01:42:29;;;;;;;1.70;1.30;;;20.80;63.20;;;;;;5034598;28;20045;-35
2023/07/21 01:44:56;;;;;;;1.70;1.30;;;20.40;79.60;;;;;;5022641;28;20049;-39
2023/07/21 01:47:24;;;;;;;2.05;1.38;;;20.20;80.40;;;;;;5040497;28;20124;-37
2023/07/21 01:49:51;;;;;;;1.80;1.20;;;21.90;80.40;;;;;;5035008;28;20695;-39
2023/07/21 01:52:18;;;;;;;1.38;1.17;;;20.30;71.30;;;;;;5039118;28;20586;-36
2023/07/21 01:54:48;;;;;;;1.88;1.20;;;21.90;80.40;;;;;;5038038;28;20053;-36
2023/07/21 01:57:18;;;;;;;1.40;1.20;;;20.70;63.10;;;;;;5028734;28;20129;-39
2023/07/21 01:59:47;;;;;;;2.53;1.33;;;21.10;80.90;;;;;;5036383;28;20132;-35
2023/07/21 02:02:14;;;;;;;1.65;1.30;;;;;;;;;;5033459;28;20129;-36
2023/07/21 02:04:40;;;;;;;2.05;1.40;;;20.20;80.40;;;;;;5041535;28;20549;-39
2023/07/21 02:07:07;;;;;;;2.63;1.45;;;20.80;77.20;;;;;;5038674;28;20083;-37
2023/07/21 02:09:34;;;;;;;1.25;1.13;;;20.40;67.70;;;;;;5036082;28;20103;-38
2023/07/21 02:12:00;;;;;;;2.10;1.30;;;21.40;81.00;;;;;;5034004;28;20121;-40
2023/07/21 02:14:27;;;;;;;1.27;1.15;;;21.60;80.30;;;;;;5025294;28;20176;-38
2023/07/21 02:16:55;;;;;;;2.28;1.42;;;20.70;63.00;;;;;;5035992;28;20061;-34
2023/07/21 02:19:22;;;;;;;1.60;1.20;;;;;;;;;;5034759;28;20143;-35
2023/07/21 02:21:49;;;;;;;1.58;1.35;;;19.60;79.20;;;;;;5035989;28;20049;-36
2023/07/21 02:24:16;;;;;;;2.45;1.42;;;20.40;80.50;;;;;;5039102;28;20041;-40
2023/07/21 02:26:43;;;;;;;1.38;1.27;;;20.60;79.70;;;;;;5036138;28;20050;-37
2023/07/21 02:29:10;;;;;;;1.85;1.23;;;20.50;77.80;;;;;;5039494;28;20136;-40
2023/07/21 02:31:37;;;;;;;1.67;1.20;;;20.50;78.90;;;;;;5036222;28;20049;-36
2023/07/21 02:34:05;;;;;;;2.20;1.20;;;20.60;63.00;;;;;;5029182;28;20049;-39
2023/07/21 02:36:32;;;;;;;1.90;1.33;;;20.90;80.20;;;;;;5039500;28;20132;-38
2023/07/21 02:38:59;;;;;;;1.77;1.23;;;20.30;74.80;;;;;;5034445;28;20055;-38
2023/07/21 02:41:26;;;;;;;1.48;1.15;;;20.40;75.20;;;;;;5038547;28;20177;-39
2023/07/21 02:43:53;;;;;;;1.83;1.35;;;;;;;;;;5039410;28;20049;-36
2023/07/21 02:46:20;;;;;;;1.70;1.27;;;20.90;79.80;;;;;;5031691;28;20128;-38
2023/07/21 02:48:47;;;;;;;2.42;1.30;;;;;;;;;;5027313;28;20049;-36
2023/07/21 02:51:16;;;;;;;2.05;1.30;;;20.60;63.00;;;;;;5038350;28;20140;-36
2023/07/21 02:53:43;;;;;;;1.73;1.35;;;;;;;;;;5036104;28;20042;-36
2023/07/21 02:56:10;;;;;;;1.83;1.30;;;20.70;79.80;;;;;;5039798;28;20131;-38
2023/07/21 02:58:37;;;;;;;1.90;1.40;;;;;;;;;;5037494;28;20124;-35
2023/07/21 03:01:04;;;;;;;1.48;1.27;;;21.00;79.90;;;;;;5035056;28;20129;-37
2023/07/21 03:03:32;;;;;;;2.08;1.42;;;21.00;80.00;;;;;;5032224;28;20065;-37
2023/07/21 03:05:59;;;;;;;1.80;1.35;;;20.50;79.70;;;;;;5033982;28;20050;-36
2023/07/21 03:08:28;;;;;;;1.42;1.15;;;20.60;62.90;;;;;;5041266;28;20124;-34
2023/07/21 03:10:55;;;;;;;1.23;1.13;;;21.50;80.60;;;;;;5029176;28;20075;-37
2023/07/21 03:13:22;;;;;;;2.00;1.27;;;20.70;73.70;;;;;;5038346;28;20045;-39
2023/07/21 03:15:49;;;;;;;1.20;1.10;;;20.10;79.90;;;;;;5042137;28;20053;-38
2023/07/21 03:18:15;;;;;;;2.35;1.42;;;20.90;79.90;;;;;;5025968;28;20481;-38
2023/07/21 03:20:42;;;;;;;1.75;1.30;;;21.00;69.40;;;;;;5042413;28;20124;-37
2023/07/21 03:23:09;;;;;;;2.38;1.15;;;20.50;79.60;;;;;;5045385;28;20128;-36
2023/07/21 03:25:37;;;;;;;1.83;1.17;;;21.30;73.20;;;;;;5043249;28;20124;-39
2023/07/21 03:28:05;;;;;;;1.60;1.20;;;;;;;;;;5026506;28;20054;-33
2023/07/21 03:30:32;;;;;;;1.45;1.20;;;;;;;;;;5031016;28;20064;-39
2023/07/21 03:32:58;;;;;;;3.47;1.63;;;20.20;68.10;;;;;;5038515;28;20045;-38
2023/07/21 03:35:25;;;;;;;1.58;1.17;;;20.70;79.70;;;;;;5041878;28;20519;-37
2023/07/21 03:37:52;;;;;;;1.17;1.00;;;20.50;80.20;;;;;;5027180;28;20041;-37
2023/07/21 03:40:18;;;;;;;1.45;1.10;;;20.20;63.20;;;;;;5040473;28;20466;-34
2023/07/21 03:42:47;;;;;;;1.45;1.02;;;20.10;62.60;;;;;;5039574;28;20132;-39
2023/07/21 03:45:13;;;;;;;1.38;1.10;;;20.70;79.70;;;;;;5035690;28;20502;-37
2023/07/21 03:47:40;;;;;;;1.45;1.33;;;20.50;80.00;;;;;;5039498;28;20073;-36
2023/07/21 03:50:08;;;;;;;1.23;1.10;;;20.90;63.80;;;;;;5034409;28;20162;-34
2023/07/21 03:52:35;;;;;;;1.40;1.00;;;20.50;77.50;;;;;;5038225;28;20049;-36
2023/07/21 03:55:03;;;;;;;1.13;0.90;;;20.70;79.80;;;;;;5039178;28;20741;-37
2023/07/21 03:57:29;;;;;;;1.58;1.00;;;20.80;79.90;;;;;;5037356;28;20083;-37
2023/07/21 03:59:58;;;;;;;1.08;0.95;;;20.80;80.30;;;;;;5036102;28;20262;-37
2023/07/21 04:02:25;;;;;;;0.95;0.90;;;20.10;80.50;;;;;;5041965;28;20132;-39
2023/07/21 04:04:53;;;;;;;1.27;0.90;;;21.10;80.90;;;;;;5032062;28;20045;-39
2023/07/21 04:07:21;;;;;;;1.10;1.00;;;20.90;70.20;;;;;;5010510;28;20095;-36
2023/07/21 04:09:48;;;;;;;1.00;0.95;;;20.30;79.80;;;;;;5008939;28;20049;-37
2023/07/21 04:12:14;;;;;;;1.05;0.93;;;20.50;80.10;;;;;;5010296;28;20057;-38
2023/07/21 04:14:41;;;;;;;0.95;0.80;;;20.40;79.60;;;;;;5011157;28;20133;-38
2023/07/21 04:17:09;;;;;;;1.02;0.88;;;20.20;68.10;;;;;;5010514;28;20135;-38
2023/07/21 04:19:36;;;;;;;1.02;0.80;;;20.90;67.60;;;;;;5011020;28;20451;-37
2023/07/21 04:22:02;;;;;;;0.80;0.80;;;19.60;79.30;;;;;;5010041;28;20052;-36
2023/07/21 04:24:29;;;;;;;1.02;0.90;;;20.30;80.00;;;;;;5021336;28;20846;-39
2023/07/21 04:26:56;;;;;;;0.80;0.80;;;;;;;;;;5025754;28;20042;-36
2023/07/21 04:29:23;;;;;;;1.10;0.90;;;20.60;79.80;;;;;;5013123;28;20134;-37
2023/07/21 04:31:50;;;;;;;2.60;1.00;;;20.70;74.40;;;;;;5019153;28;20061;-36
2023/07/21 04:34:19;;;;;;;1.08;0.88;;;20.70;79.80;;;;;;5021345;28;20132;-39
2023/07/21 04:36:46;;;;;;;0.80;0.80;;;20.70;80.10;;;;;;5029979;28;20547;-38
2023/07/21 04:39:13;;;;;;;1.20;1.00;;;20.00;80.30;;;;;;5030013;28;20137;-37
2023/07/21 04:41:40;;;;;;;0.80;0.80;;;;;;;;;;5013773;28;20050;-34
2023/07/21 04:44:07;;;;;;;0.88;0.85;;;20.50;80.60;;;;;;5017393;28;20132;-39
2023/07/21 04:46:34;;;;;;;0.80;0.80;;;21.10;80.90;;;;;;5020606;28;20444;-36
2023/07/21 04:49:06;;;;;;;1.20;0.80;;;;;;;;;;5018461;28;20414;-35
2023/07/21 04:51:34;;;;;;;1.30;0.98;;;20.00;67.70;;;;;;5019580;28;20114;-34
2023/07/21 04:54:01;;;;;;;1.15;0.88;;;21.40;67.10;;;;;;5020327;28;20067;-38
2023/07/21 04:56:28;;;;;;;1.27;1.10;;;21.00;68.50;;;;;;5018515;28;20050;-40
2023/07/21 04:58:55;;;;;;;1.60;1.05;;;20.30;72.20;;;;;;5018201;28;20045;-36
2023/07/21 05:01:22;;;;;;;1.15;1.02;;;20.60;79.70;;;;;;5018937;28;20132;-39
2023/07/21 05:03:48;;;;;;;1.17;0.90;;;20.60;65.00;;;;;;5019888;28;20128;-40
2023/07/21 05:06:15;;;;;;;1.40;0.90;;;19.90;65.90;;;;;;5025704;28;20084;-36
2023/07/21 05:08:43;;;;;;;1.10;1.00;;;20.10;80.30;;;;;;5030080;28;20125;-38
2023/07/21 05:11:10;;;;;;;2.33;1.00;;;20.30;80.00;;;;;;5029719;28;20120;-36
2023/07/21 05:13:37;;;;;;;1.10;1.00;;;20.80;79.80;;;;;;5027810;28;20067;-38
2023/07/21 05:16:04;;;;;;;1.45;1.10;;;20.30;79.60;;;;;;5029646;28;20045;-38
2023/07/21 05:18:31;;;;;;;1.17;1.08;;;19.30;79.20;;;;;;5029619;28;20490;-37
2023/07/21 05:20:58;;;;;;;1.13;0.90;;;;;;;;;;5029289;28;20057;-35
2023/07/21 05:23:25;;;;;;;1.67;1.20;;;20.20;79.70;;;;;;5029410;28;20053;-38
2023/07/21 05:26:00;;;;;;;0.98;0.90;;;20.30;62.60;;;;;;5020318;28;20053;-35
2023/07/21 05:28:27;;;;;;;1.02;0.88;;;20.40;79.90;;;;;;5020351;28;20102;-38
2023/07/21 05:30:54;;;;;;;1.50;1.10;;;;;;;;;;5019342;28;20110;-37
2023/07/21 05:33:20;;;;;;;2.00;1.13;;;19.90;79.40;;;;;;5020128;28;20050;-36
2023/07/21 05:35:47;;;;;;;1.35;1.10;;;;;;;;;;5019406;28;20128;-37
2023/07/21 05:38:14;;;;;;;1.63;1.05;;;20.10;74.20;;;;;;5015113;28;20126;-39
2023/07/21 05:40:41;;;;;;;1.75;1.17;;;20.60;80.10;;;;;;5019334;28;20120;-39
2023/07/21 05:43:09;;;;;;;1.27;1.10;;;20.10;79.90;;;;;;5019395;28;20129;-39
2023/07/21 05:45:38;;;;;;;1.45;0.95;;;20.30;79.70;;;;;;5008635;28;20047;-37
2023/07/21 05:48:09;;;;;;;1.80;1.40;;;;;;;;;;5008535;28;20042;-38
2023/07/21 05:50:36;;;;;;;1.40;1.10;;;20.50;80.10;;;;;;5015320;28;20574;-38
2023/07/21 05:53:03;;;;;;;2.03;1.20;;;20.20;69.20;;;;;;5018414;28;20050;-33
2023/07/21 05:55:29;;;;;;;1.30;1.20;;;19.70;70.80;;;;;;5019462;28;20468;-36
2023/07/21 05:57:56;;;;;;;1.23;1.10;;;20.20;80.10;;;;;;5017944;28;20095;-39
2023/07/21 06:00:25;;;;;;;1.92;1.20;;;20.40;63.70;;;;;;5025949;28;20128;-33
2023/07/21 06:02:52;;;;;;;1.67;1.15;;;19.40;79.30;;;;;;5028175;28;20140;-33
2023/07/21 06:05:19;;;;;;;1.70;1.08;;;20.10;79.70;;;;;;5026906;28;20128;-30
2023/07/21 06:07:46;;;;;;;1.42;1.20;;;;;;;;;;5028923;28;20050;-31
2023/07/21 06:10:12;;;;;;;1.33;1.10;;;20.20;80.10;;;;;;5028314;28;20136;-30
2023/07/21 06:12:40;;;;;;;1.95;1.30;;;;;;;;;;5028499;28;20148;-33
2023/07/21 06:15:08;;;;;;;2.13;1.02;;;20.30;62.80;;;;;;5028482;28;20132;-29
2023/07/21 06:17:36;;;;;;;1.20;1.10;;;20.30;62.80;;;;;;5028188;28;20056;-30
2023/07/21 06:20:03;;;;;;;2.30;1.20;;;20.80;80.20;;;;;;5026984;28;20086;-30
2023/07/21 06:22:30;;;;;;;1.60;1.20;;;20.20;70.30;;;;;;5008953;28;20955;-30
2023/07/21 06:24:57;;;;;;;1.33;1.10;;;21.00;80.20;;;;;;5009096;28;20050;-30
2023/07/21 06:27:24;;;;;;;1.02;0.93;;;;;;;;;;5008567;28;20543;-36
2023/07/21 06:29:51;;;;;;;1.27;1.10;;;20.40;73.30;;;;;;5008663;28;20054;-30
2023/07/21 06:32:17;;;;;;;1.42;1.20;;;19.70;79.60;;;;;;5008631;28;20129;-31
2023/07/21 06:34:47;;;;;;;1.27;1.02;;;20.40;71.70;;;;;;5008725;28;20485;-30
2023/07/21 06:37:13;;;;;;;1.45;1.20;;;21.40;80.40;;;;;;5017278;28;20069;-30
2023/07/21 06:39:40;;;;;;;1.45;1.10;;;20.00;67.40;;;;;;5008410;28;20402;-31
2023/07/21 06:42:08;;;;;;;1.20;1.02;;;20.50;78.40;;;;;;5008413;28;20054;-30
2023/07/21 06:44:34;;;;;;;1.48;1.20;;;19.90;79.50;;;;;;5016401;28;20502;-31
2023/07/21 06:47:01;;;;;;;1.65;1.23;;;20.90;80.50;;;;;;5031163;28;20124;-31
2023/07/21 06:49:28;;;;;;;1.15;1.00;;;;;;;;;;5032001;28;20045;-34
2023/07/21 06:51:56;;;;;;;2.03;1.00;;;19.50;71.60;;;;;;5027666;28;20570;-30
2023/07/21 06:54:24;;;;;;;1.33;0.90;;;20.60;80.00;;;;;;5011866;28;20058;-30
2023/07/21 06:56:51;;;;;;;1.55;1.25;;;20.20;69.10;;;;;;5012053;28;20103;-32
2023/07/21 06:59:17;;;;;;;1.45;1.00;;;19.90;80.40;;;;;;5012096;28;20497;-30
2023/07/21 07:01:44;;;;;;;0.93;0.90;;;20.70;80.10;;;;;;5012262;28;20137;-30
2023/07/21 07:04:11;;;;;;;1.25;1.02;;;20.20;70.40;;;;;;5012862;28;20141;-33
2023/07/21 07:06:37;;;;;;;1.10;0.90;;;20.40;80.20;;;;;;5031419;28;20132;-31
2023/07/21 07:09:06;;;;;;;1.90;1.17;;;20.40;79.90;;;;;;5023714;28;20124;-30
2023/07/21 07:11:33;;;;;;;1.30;1.02;;;20.00;80.00;;;;;;5019563;28;20081;-31
2023/07/21 07:14:00;;;;;;;1.10;1.00;;;20.60;65.10;;;;;;5021174;28;20124;-30
2023/07/21 07:16:27;;;;;;;3.55;1.20;;;20.60;80.00;;;;;;5021217;28;20076;-31
2023/07/21 07:18:53;;;;;;;1.20;0.90;;;19.90;74.80;;;;;;5020434;28;20046;-30
2023/07/21 07:21:21;;;;;;;1.33;1.02;;;21.40;80.40;;;;;;5020031;28;20049;-30
2023/07/21 07:23:47;;;;;;;2.38;1.20;;;20.90;72.10;;;;;;5020688;28;20056;-30
2023/07/21 07:26:15;;;;;;;1.50;1.00;;;19.20;79.30;;;;;;5019510;28;20052;-30
2023/07/21 07:28:42;;;;;;;2.28;1.20;;;19.50;80.20;;;;;;5011338;28;20137;-30
2023/07/21 07:31:09;;;;;;;1.48;1.00;;;20.20;80.60;;;;;;5011372;28;20129;-30
2023/07/21 07:33:36;;;;;;;1.70;1.08;;;;;;;;;;5010784;28;20093;-34
2023/07/21 07:36:03;;;;;;;1.27;1.00;;;20.50;80.70;;;;;;5011065;28;20125;-38
2023/07/21 07:38:30;;;;;;;1.10;1.00;;;20.90;72.50;;;;;;5023894;28;20073;-40
2023/07/21 07:41:01;;;;;;;4.35;1.10;;;20.20;80.20;;;;;;5026850;28;20052;-40
2023/07/21 07:43:29;;;;;;;1.13;1.00;;;20.10;79.70;;;;;;5010946;28;20050;-39
2023/07/21 07:45:57;;;;;;;1.10;1.00;;;20.60;80.20;;;;;;5011342;28;20301;-39
2023/07/21 07:48:24;;;;;;;1.50;1.10;;;20.30;67.70;;;;;;5011285;28;20132;-38
2023/07/21 07:50:51;;;;;;;1.02;0.90;;;19.60;69.70;;;;;;5011072;28;20060;-36
2023/07/21 07:53:18;;;;;;;5.45;1.00;;;20.10;66.00;;;;;;5010975;28;20053;-37
2023/07/21 07:55:45;;;;;;;2.80;1.00;;;20.70;79.80;;;;;;5011079;28;20060;-40
2023/07/21 07:58:12;;;;;;;5.10;0.73;;;21.60;80.20;;;;;;5010310;28;20077;-38
2023/07/21 08:00:41;;;;;;;1.00;0.90;;;20.70;73.80;;;;;;5010837;28;20088;-40
2023/07/21 08:03:09;;;;;;;1.42;1.10;;;19.80;78.40;;;;;;5010361;28;20111;-40
2023/07/21 08:05:36;;;;;;;2.88;1.20;;;20.60;76.70;;;;;;5023691;28;20045;-40
2023/07/21 08:08:03;;;;;;;2.42;1.10;;;;;;;;;;5024152;28;20124;-33
2023/07/21 08:10:29;;;;;;;2.38;1.20;;;20.90;79.00;;;;;;5023519;28;20145;-40
2023/07/21 08:12:56;;;;;;;1.83;1.00;;;20.30;78.80;;;;;;5030475;28;20049;-39
2023/07/21 08:15:23;;;;;;;1.30;1.02;;;19.50;73.90;;;;;;5029324;28;20053;-39
2023/07/21 08:17:51;;;;;;;1.42;1.08;;;20.40;78.90;;;;;;5028729;28;20128;-38
2023/07/21 08:20:18;;;;;;;2.45;1.10;;;21.40;79.80;;;;;;5030217;28;20067;-40
2023/07/21 08:22:45;;;;;;;2.15;1.10;;;20.90;70.40;;;;;;5022725;28;20063;-39
2023/07/21 08:25:12;;;;;;;1.77;0.95;;;20.40;79.20;;;;;;5020063;28;20514;-38
2023/07/21 08:27:39;;;;;;;1.60;1.20;;;20.70;79.00;;;;;;5019869;28;20124;-40
2023/07/21 08:30:08;;;;;;;6.35;1.65;;;20.50;71.80;;;;;;5023886;27;20077;-38
2023/07/21 08:32:35;;;;;;;3.28;1.10;;;;;;;;;;5009477;28;20075;-30
2023/07/21 08:35:03;;;;;;;1.75;1.02;;;20.50;70.30;;;;;;5010629;28;20052;-30
2023/07/21 08:37:30;;;;;;;2.75;1.00;;;20.80;77.40;;;;;;5022913;28;20140;-31
2023/07/21 08:39:57;;;;;;;1.15;0.90;;;20.70;78.80;;;;;;5030243;28;20467;-30
2023/07/21 08:42:24;;;;;;;1.45;1.05;;;;;;;;;;5029749;28;20520;-34
2023/07/21 08:44:51;;;;;;;1.45;0.98;;;20.50;78.50;;;;;;5030247;28;20478;-30
2023/07/21 08:47:18;;;;;;;1.70;1.05;;;;;;;;;;5029223;28;20623;-34
2023/07/21 08:49:45;;;;;;;1.35;1.08;;;21.10;78.70;;;;;;5019326;28;20042;-30
2023/07/21 08:52:13;;;;;;;1.58;0.90;;;21.10;62.20;;;;;;5019341;28;20041;-31
2023/07/21 08:54:40;;;;;;;1.25;1.00;;;20.30;71.60;;;;;;5015486;28;20056;-31
2023/07/21 08:57:07;;;;;;;2.42;1.10;;;21.40;79.10;;;;;;5010098;28;20060;-30
2023/07/21 08:59:34;;;;;;;1.48;1.02;;;;;;;;;;5010122;28;20045;-31
2023/07/21 09:02:01;;;;;;;1.23;1.00;;;21.70;79.20;;;;;;5010258;28;20133;-30
2023/07/21 09:04:27;;;;;;;1.23;0.90;;;21.20;78.10;;;;;;5014331;28;20528;-32
2023/07/21 09:06:56;;;;;;;1.25;1.00;;;21.10;77.90;;;;;;5016641;28;20050;-30
2023/07/21 09:09:25;;;;;;;1.20;1.00;;;22.20;78.80;;;;;;5008841;28;20077;-30
2023/07/21 09:11:59;;;;;;;1.38;1.08;;;21.90;78.20;;;;;;5009542;28;20056;-30
2023/07/21 09:14:36;;;;;;;1.20;1.10;;;21.70;78.40;;;;;;5009200;28;20137;-30
2023/07/21 09:17:03;;;;;;;2.42;1.00;;;20.70;61.30;;;;;;5009426;28;20499;-32
2023/07/21 09:19:30;;;;;;;1.13;0.82;;;21.40;78.00;;;;;;5010056;28;20402;-30
2023/07/21 09:21:57;;;;;;;3.20;0.93;;;;;;;;;;5014002;28;20053;-33
2023/07/21 09:24:25;;;;;;;1.15;1.00;;;21.40;77.50;;;;;;5009123;28;20102;-31
2023/07/21 09:27:09;;;;;;;1.75;1.00;;;21.90;77.70;;;;;;5009218;28;20096;-31
2023/07/21 09:29:36;;;;;;;2.53;1.05;;;21.60;77.40;;;;;;5009589;28;20567;-30
2023/07/21 09:32:03;;;;;;;2.40;1.10;;;21.70;78.40;;;;;;5009849;28;20079;-30
2023/07/21 09:34:30;;;;;;;1.25;1.00;;;21.60;77.30;;;;;;5009380;28;20539;-31
2023/07/21 09:36:57;;;;;;;1.33;1.10;;;21.70;63.80;;;;;;5013893;28;20041;-30
2023/07/21 09:39:25;;;;;;;1.20;0.90;;;21.50;74.80;;;;;;5017464;28;20136;-32
2023/07/21 09:41:52;;;;;;;2.30;0.98;;;21.20;75.00;;;;;;5009648;28;20049;-36
2023/07/21 09:44:19;;;;;;;1.20;1.00;;;22.00;77.30;;;;;;5027928;28;20049;-38
2023/07/21 09:46:46;;;;;;;1.27;0.90;;;21.70;76.30;;;;;;5029321;28;20098;-37
2023/07/21 09:49:13;;;;;;;1.00;0.90;;;21.40;77.40;;;;;;5028546;28;20124;-35
2023/07/21 09:51:40;;;;;;;1.80;1.08;;;20.70;63.00;;;;;;5025774;28;20045;-38
2023/07/21 09:54:06;;;;;;;1.60;1.10;;;22.10;77.30;;;;;;5029102;28;20046;-35
2023/07/21 09:56:35;;;;;;;0.98;0.90;;;21.90;77.30;;;;;;5009957;28;20133;-37
2023/07/21 09:59:02;;;;;;;1.08;0.98;;;21.80;61.10;;;;;;5011242;28;20076;-38
2023/07/21 10:01:28;;;;;;;1.10;0.80;;;22.60;72.50;;;;;;5016577;28;20103;-35
2023/07/21 10:03:55;;;;;;;1.75;1.10;;;;;;;;;;5018009;28;20049;-36
2023/07/21 10:06:23;;;;;;;1.67;0.93;;;;;;;;;;5020782;28;20064;-35
2023/07/21 10:08:50;;;;;;;1.02;0.93;;;22.30;78.20;;;;;;5017737;28;20046;-39
2023/07/21 10:11:17;;;;;;;1.02;0.90;;;20.90;76.40;;;;;;5017959;28;20132;-36
2023/07/21 10:13:46;;;;;;;1.13;1.00;;;21.90;77.40;;;;;;5019249;28;20557;-36
2023/07/21 10:16:13;;;;;;;0.98;0.90;;;22.40;77.30;;;;;;5016608;28;20056;-34
2023/07/21 10:19:06;;;;;;;1.10;1.00;;;22.00;77.20;;;;;;5016568;28;20053;-39
2023/07/21 10:21:33;;;;;;;1.20;1.00;;;22.20;62.50;;;;;;5010979;28;20078;-32
2023/07/21 10:24:00;;;;;;;0.98;0.88;;;21.20;77.10;;;;;;5012076;28;20120;-30
2023/07/21 10:26:28;;;;;;;1.40;0.93;;;21.80;75.10;;;;;;5014695;28;20054;-31
2023/07/21 10:28:59;;;;;;;1.25;0.90;;;22.40;77.90;;;;;;5021682;28;20054;-30
2023/07/21 10:31:36;;;;;;;0.80;0.80;;;22.00;61.00;;;;;;5017975;28;20125;-37
2023/07/21 10:34:03;;;;;;;2.83;1.00;;;22.40;77.10;;;;;;5026899;28;20513;-39
2023/07/21 10:36:43;;;;;;;1.08;0.98;;;22.80;78.10;;;;;;5031070;28;20525;-38
2023/07/21 10:39:10;;;;;;;4.47;1.10;;;21.90;76.80;;;;;;5032065;28;20128;-38
2023/07/21 10:41:38;;;;;;;2.03;1.05;;;;;;;;;;5031841;28;20510;-36
2023/07/21 10:44:07;;;;;;;0.93;0.82;;;22.00;77.70;;;;;;5031720;28;20049;-39
2023/07/21 10:46:37;;;;;;;1.35;1.00;;;22.70;77.10;;;;;;5026630;28;20050;-39
2023/07/21 10:49:04;;;;;;;2.40;0.98;;;22.40;76.90;;;;;;5012090;28;20050;-39
2023/07/21 10:51:31;;;;;;;2.70;1.38;;;21.60;77.50;;;;;;5011980;28;20091;-40
2023/07/21 10:53:58;;;;;;;1.40;1.00;;;;;;;;;;5012029;28;20052;-35
2023/07/21 10:56:25;;;;;;;1.10;1.00;;;21.50;71.10;;;;;;5011748;28;20056;-40
2023/07/21 10:58:52;;;;;;;2.08;1.00;;;22.00;77.20;;;;;;5012010;28;20074;-38
2023/07/21 11:01:20;;;;;;;1.25;0.77;;;21.10;76.40;;;;;;5016734;28;20111;-39
2023/07/21 11:03:48;;;;;;;0.88;0.80;;;22.50;78.00;;;;;;5025926;28;20042;-42
2023/07/21 11:06:14;;;;;;;1.50;1.05;;;22.30;70.40;;;;;;5024680;28;20049;-41
2023/07/21 11:08:41;;;;;;;0.80;0.70;;;;;;;;;;5031236;28;20136;-41
2023/07/21 11:11:09;;;;;;;1.45;1.10;;;22.20;63.20;;;;;;5031420;28;20136;-40
2023/07/21 11:13:36;;;;;;;0.90;0.90;;;;;;;;;;5031475;28;20132;-41
2023/07/21 11:16:03;;;;;;;1.58;1.00;;;;;;;;;;5031817;28;20134;-41
2023/07/21 11:18:31;;;;;;;1.20;0.95;;;22.20;77.60;;;;;;5031300;28;20077;-42
2023/07/21 11:20:58;;;;;;;0.80;0.80;;;22.30;77.20;;;;;;5029685;28;20077;-40
2023/07/21 11:23:26;;;;;;;1.77;1.00;;;22.00;61.30;;;;;;5031095;28;20110;-40
2023/07/21 11:26:01;;;;;;;1.98;1.45;;;20.90;75.80;;;;;;5029360;28;20049;-37
2023/07/21 11:28:28;;;;;;;1.85;0.90;;;21.90;77.50;;;;;;5021888;28;20053;-36
2023/07/21 11:30:55;;;;;;;2.90;0.90;;;22.30;63.90;;;;;;5031422;28;20049;-36
2023/07/21 11:33:22;;;;;;;0.98;0.90;;;21.90;77.30;;;;;;5012745;28;20566;-39
2023/07/21 11:35:51;;;;;;;2.97;0.90;;;21.60;77.10;;;;;;5019187;28;20110;-40
2023/07/21 11:38:18;;;;;;;1.55;1.00;;;22.30;78.00;;;;;;5030814;28;20062;-38
2023/07/21 11:40:47;;;;;;;0.98;0.80;;;21.70;69.20;;;;;;5031129;28;20041;-38
2023/07/21 11:43:14;;;;;;;1.85;1.08;;;22.30;78.30;;;;;;5030709;28;20585;-40
2023/07/21 11:45:41;;;;;;;1.10;0.98;;;21.90;78.30;;;;;;5012600;28;20137;-38
2023/07/21 11:48:13;;;;;;;2.42;1.00;;;21.60;77.20;;;;;;5025774;28;20506;-39
2023/07/21 11:50:42;;;;;;;1.48;0.90;;;22.10;68.60;;;;;;5013403;28;20078;-40
2023/07/21 11:53:10;;;;;;;1.63;0.95;;;21.90;77.90;;;;;;5015137;28;20057;-39
2023/07/21 11:55:37;;;;;;;2.10;1.00;;;21.90;76.10;;;;;;5030545;28;20046;-39
2023/07/21 11:58:04;;;;;;;1.00;0.90;;;21.00;74.40;;;;;;5029548;28;20080;-38
2023/07/21 12:00:32;;;;;;;1.33;1.02;;;21.80;61.60;;;;;;5026785;28;20410;-37
2023/07/21 12:02:59;;;;;;;2.10;0.80;;;21.10;63.50;;;;;;5010676;28;20132;-37
2023/07/21 12:05:26;;;;;;;1.17;1.08;;;;;;;;;;5022366;28;20083;-36
2023/07/21 12:07:53;;;;;;;2.03;1.00;;;22.90;78.10;;;;;;5030772;28;20081;-37
2023/07/21 12:10:22;;;;;;;1.42;0.82;;;21.80;77.90;;;;;;5030797;28;20049;-37
2023/07/21 12:12:50;;;;;;;1.38;1.02;;;22.30;77.60;;;;;;5030465;28;20081;-39
2023/07/21 12:15:17;;;;;;;1.40;1.00;;;;;;;;;;5030680;28;20128;-38
2023/07/21 12:17:44;;;;;;;4.05;1.17;;;22.10;78.00;;;;;;5030230;28;20612;-39
2023/07/21 12:20:13;;;;;;;1.52;1.00;;;21.70;71.20;;;;;;5030621;28;20045;-38
2023/07/21 12:22:40;;;;;;;2.20;1.02;;;21.90;78.40;;;;;;5018286;28;20464;-39
2023/07/21 12:25:09;;;;;;;1.05;0.95;;;22.20;78.40;;;;;;5010797;28;20061;-38
2023/07/21 12:27:37;;;;;;;2.17;1.15;;;22.50;78.20;;;;;;5012822;28;20046;-38
2023/07/21 12:30:08;;;;;;;2.42;1.10;;;22.50;78.70;;;;;;5010586;28;20049;-39
2023/07/21 12:32:35;;;;;;;1.38;1.10;;;;;;;;;;5010766;28;20057;-35
2023/07/21 12:35:01;;;;;;;1.00;0.85;;;21.90;77.80;;;;;;5012741;28;20133;-40
2023/07/21 12:37:28;;;;;;;1.20;0.93;;;21.50;77.80;;;;;;5029782;28;20128;-39
2023/07/21 12:39:56;;;;;;;1.17;0.93;;;22.40;66.20;;;;;;5029863;28;20383;-37
2023/07/21 12:42:23;;;;;;;3.67;1.10;;;;;;;;;;5030036;28;20133;-35
2023/07/21 12:44:51;;;;;;;1.10;1.00;;;22.10;78.40;;;;;;5029827;28;20490;-37
2023/07/21 12:47:19;;;;;;;2.30;0.90;;;20.80;77.00;;;;;;5030385;28;20133;-38
2023/07/21 12:49:46;;;;;;;1.17;1.00;;;22.50;78.60;;;;;;5030184;28;20081;-39
2023/07/21 12:52:14;;;;;;;1.58;0.80;;;22.70;77.90;;;;;;5028971;28;20141;-39
2023/07/21 12:54:40;;;;;;;1.27;0.95;;;22.60;77.90;;;;;;5021075;28;20141;-32
2023/07/21 12:57:07;;;;;;;1.50;1.10;;;;;;;;;;5010080;28;20137;-33
2023/07/21 12:59:34;;;;;;;1.92;1.25;;;22.00;78.30;;;;;;5010130;28;20513;-33
2023/07/21 13:02:02;;;;;;;1.95;0.88;;;22.20;78.50;;;;;;5010127;28;20042;-32
2023/07/21 13:04:29;;;;;;;1.10;1.00;;;;;;;;;;5012977;28;20578;-38